This is the latest recevied weather packets stored in our database for station/object VU3OPZ-13. If no packets are shown the sender has not sent any weather packets the latest 10 day(s).
| Time | Temp. | Humidity | Pressure | Rain* | Wind** | Luminosity | Snow |
|---|---|---|---|---|---|---|---|
| 1787700390 | 21.67° C | 90% | 1010 hPa | 0 mm | - | - | - |
| 1787698586 | 21.67° C | 90% | 1010 hPa | 0 mm | - | - | - |
| 1787696782 | 21.67° C | 89% | 1010 hPa | 0 mm | - | - | - |
| 1787694977 | 21.67° C | 89% | 1010 hPa | 0 mm | - | - | - |
| 1787693173 | 22.22° C | 87% | 1010 hPa | 0 mm | - | - | - |
| 1787691368 | 22.22° C | 87% | 1010 hPa | 0 mm | - | - | - |
| 1787689564 | 22.22° C | 86% | 1011 hPa | 0 mm | - | - | - |
| 1787687759 | 22.22° C | 86% | 1011 hPa | 0 mm | - | - | - |
| 1787685956 | 22.78° C | 85% | 1011 hPa | 0 mm | - | - | - |
| 1787684151 | 22.78° C | 85% | 1011 hPa | 0 mm | - | - | - |
| 1787682347 | 22.78° C | 85% | 1012 hPa | 0 mm | - | - | - |
| 1787680542 | 22.78° C | 85% | 1012 hPa | 0 mm | - | - | - |
| 1787678738 | 22.78° C | 84% | 1012 hPa | 0 mm | - | - | - |
| 1787676933 | 22.78° C | 84% | 1012 hPa | 0 mm | - | - | - |
| 1787675129 | 23.33° C | 84% | 1012 hPa | 0 mm | - | - | - |
| 1787673325 | 23.33° C | 84% | 1012 hPa | 0 mm | - | - | - |
| 1787671520 | 23.89° C | 83% | 1011 hPa | 0 mm | - | - | - |
| 1787669715 | 23.33° C | 83% | 1011 hPa | 0 mm | - | - | - |
| 1787667911 | 23.89° C | 80% | 1011 hPa | 0 mm | - | - | - |
| 1787666107 | 24.44° C | 80% | 1011 hPa | 0 mm | - | - | - |
| 1787664302 | 25° C | 74% | 1010 hPa | 0 mm | - | - | - |
| 1787662498 | 25° C | 74% | 1010 hPa | 0 mm | - | - | - |
| 1787660694 | 26.11° C | 69% | 1009 hPa | 0 mm | - | - | - |
| 1787658890 | 26.11° C | 68% | 1008 hPa | 0 mm | - | - | - |
| 1787657085 | 27.78° C | 64% | 1008 hPa | 0 mm | - | - | - |
* Rain latest hour (hover to see other rain measurements)
** Current wind speed in m/s (hover to see current wind gust speed)